Pagrindinis puslapis
METAR-TAF:

METAR-TAF

Oro uostai :

Kemis, Suomija

platuma: 65-47N, ilguma: 024-35E, Aukštis: 15 m

Dabartinis oras

Ataskaita buvo paskelbta 23 minutes, ne 02:50 UTC
Vėjas 15 kt iš Pietų/Pietryčių su gūsio iki 26 kt, svyruoja nuo Rytų/Pietryčių ir Pietų
Temperatūra -2°C
Drėgmė 86%
Slėgis 991 hPa
Matomumas: 3200 m
Apsiniaukę ne aukštis 800 ft
sniegas

METAR: EFKE 210250Z AUTO 15015G26KT 110V180 3200 -SN OVC008 M02/M04 Q0991

Laikas: 05:13 (03:13 UTC)

Prognozė

Ataskaita buvo paskelbta 9 valandos ir 35 minutes, ne 17:38 UTC
Prognozė galioja nuo 20 metu 18 UTC su 20 metu 21 UTC
Vėjas 13 kt iš Pietų/Pietryčių
Matomumas 10 km arba daugiau
nėra debesų žemiau 1500 m ir nėra kamuolinių lietaus debesų
Laikinai
nuo 20 metu 18 UTC su 20 metu 21 UTC
Vėjas 15 kt iš Pietų/Pietryčių su gūsio iki 25 kt

TAF: EFKE 201738Z 2018/2021 15013KT CAVOK TEMPO 2018/2021 15015G25KT

Orai ataskaitas ir orų prognozės (METAR, TAF).

turimą stotys yra geltonos ir raudonos taškus žemėlapyje.

Perkelti pele per norėdami pamatyti stoties vardą.

Tada spustelėkite, norėdami matyti oro stebėjimo ir prognozės.

Norėdami pakeisti žemėlapį: spustelėkite ant žalios mygtukų su juodo kryžiaus žemyn,; žalią mygtuką su brūkšneliu, jei norite nutolinti; arba žalių rodyklių gretimoms žemėlapius.


METAR-TAF: